max min mittel Außentemperatur Tagesdurchschnitt Außenfeuchte Tagesdurchschnitt Taupunkt Tagesdurchschnitt Windchill Tagesdurchschnitt Windgeschwindigkeit Tagesdurchschnitt Gesamtregen Mindesttemperatur Höchsttemperatur Höchste Windgeschwindigkeit  Tägliche Niederschlagsmenge 
                           
                           
  hPa  hPa hPa °C % °C °C km/h mm/m² °C °C km/h mm/m²
1.1.16 1027,8 1022,2 1026,0 -0,0 91,8 -1,2 -0,3 1,7 1,6 -1,6 1,6 20,8 1,6
2.1.16 1022,2 1015,4 1018,0 -0,9 89,0 -2,4 -3,5 7,9 1,6 -1,7 -0,2 34,2 0,0
3.1.16 1015,4 1001,9 1011,0 -3,6 86,6 -5,5 -7,1 9,2 1,6 -5,6 -1,0 32,4 0,0
4.1.16 1001,7 995,0 996,3 -5,3 88,7 -6,8 -7,7 6,9 1,6 -6,5 -3,6 37,8 0,0
5.1.16 1000,4 995,8 997,8 -0,0 92,0 -1,2 -0,1 1,7 1,6 -3,7 2,5 14,7 0,0
6.1.16 1004,1 999,7 1001,7 1,1 94,8 0,3 1,1 0,3 5,4 0,5 2,4 14,4 3,8
7.1.16 1003,8 998,2 1001,1 1,3 94,0 0,3 0,5 4,1 5,4 0,8 2,9 23,0 0,0
8.1.16 1008,4 999,1 1005,7 1,6 85,1 -0,7 0,5 4,3 9,5 -3,3 5,8 42,1 4,1
9.1.16 1007,4 1003,7 1006,0 -0,2 92,6 -1,2 -0,6 2,7 9,5 -3,6 1,9 18,3 0,0
10.1.16 1003,6 997,6 1000,1 3,0 92,8 1,9 2,3 4,5 11,8 0,9 5,6 25,2 2,3
11.1.16 997,8 991,7 994,6 3,3 92,8 2,2 3,0 2,6 15,2 2,2 3,9 20,5 3,4
12.1.16 1003,1 992,3 997,5 2,4 92,6 1,3 1,4 4,1 23,1 1,1 4,2 29,8 7,9
13.1.16 1015,8 1002,6 1008,2 1,5 92,5 0,4 0,0 5,5 29,9 0,5 2,9 34,9 6,8
14.1.16 1015,8 1006,0 1011,2 0,6 88,7 -1,0 -0,0 3,7 32,6 -0,5 5,3 28,0 2,7
15.1.16 1014,0 1005,5 1007,6 -0,2 90,3 -1,6 -0,5 2,2 32,6 -1,1 0,4 27,7 0,0
16.1.16 1019,9 1014,1 1017,1 -1,8 89,1 -3,3 -2,0 1,9 32,6 -3,1 0,8 29,5 0,0
17.1.16 1024,4 1014,9 1019,8 -3,3 89,7 -4,7 -3,4 1,6 32,6 -4,4 -1,4 23,0 0,0
18.1.16 1023,5 1017,3 1020,5 -5,7 84,7 -7,9 -5,7 0,4 32,6 -12,5 1,3 9,7 0,0
19.1.16 1017,3 1015,1 1015,9 -9,1 84,5 -11,3 -9,3 1,9 32,6 -12,9 -3,4 17,2 0,0
20.1.16 1018,7 1014,5 1016,3 -6,8 88,9 -8,2 -7,8 4,0 32,6 -9,6 -4,4 25,5 0,0
21.1.16 1030,2 1018,6 1025,6 -5,6 84,3 -7,8 -5,6 0,5 32,6 -14,9 1,4 10,8 0,0
22.1.16 1031,4 1027,4 1029,8 -10,6 82,3 -13,0 -11,5 3,0 32,6 -16,5 -3,2 22,6 0,0
23.1.16 1035,0 1025,1 1029,9 -2,8 91,2 -4,0 -4,5 5,8 32,6 -9,3 1,3 33,8 0,0
24.1.16 1034,7 1030,1 1032,6 2,4 92,7 1,2 2,2 1,3 34,7 1,0 6,2 24,4 2,1
25.1.16 1029,9 1027,2 1028,7 4,0 95,7 3,3 3,6 2,9 38,0 2,1 6,4 20,5 3,3
26.1.16 1028,1 1023,2 1026,1 5,3 90,3 3,8 5,1 2,2 38,0 0,7 8,9 21,6 0,0
27.1.16 1023,1 1018,0 1021,1 9,0 73,5 4,4 8,0 5,5 38,0 6,8 11,5 34,9 0,0
28.1.16 1027,2 1016,5 1022,3 6,3 80,8 3,2 5,7 3,7 40,6 -0,9 10,8 29,5 2,6
29.1.16 1027,7 1025,1 1026,3 3,7 77,5 -0,1 2,5 5,2 40,6 -1,2 8,6 33,1 0,0
30.1.16 1025,2 1008,4 1016,1 5,0 80,8 1,9 2,6 8,7 47,7 3,4 7,3 36,7 7,1
31.1.16 1013,8 1009,1 1012,0 2,0 87,8 0,2 0,8 5,0 48,9 0,2 3,8 42,8 1,2
1.2.16 1020,7 1009,8 1016,7 8,5 89,6 6,8 6,0 10,7 52,6 3,8 9,9 52,2 3,7
2.2.16 1019,6 1013,0 1016,7 7,8 86,9 5,7 5,4 9,5 54,1 4,2 8,9 39,9 1,5
3.2.16 1021,5 1015,1 1016,7 2,5 86,1 0,4 1,1 6,0 54,1 -0,2 6,4 43,9 0,0
4.2.16 1022,8 1017,6 1021,0 0,6 91,1 -0,7 -0,7 5,0 54,7 -0,1 1,5 28,4 0,6
5.2.16 1027,8 1022,2 1025,2 2,0 91,1 0,7 1,7 2,5 56,2 0,1 5,4 26,6 1,5
6.2.16 1023,3 1011,4 1018,4 4,7 87,3 2,7 3,8 5,2 56,2 2,4 8,4 25,2 0,0
7.2.16 1011,2 1006,1 1008,5 3,3 85,8 1,1 2,4 4,8 56,2 0,8 8,6 27,7 0,0
8.2.16 1010,6 1000,3 1004,5 4,9 82,7 2,2 2,1 9,3 71,4 2,8 7,8 39,6 15,2
9.2.16 1004,3 988,9 997,9 5,1 85,7 2,8 2,1 10,2 80,0 3,8 6,4 54,0 8,6
10.2.16 1000,6 992,0 996,8 1,6 87,1 -0,3 0,6 4,5 80,0 0,8 3,3 31,3 0,0
11.2.16 1007,6 1000,0 1005,1 1,4 91,3 0,1 0,7 3,2 80,0 0,4 3,8 28,4 0,0
12.2.16 1006,6 998,2 1003,4 1,2 85,0 -1,1 1,1 1,2 80,0 -1,3 5,9 15,4 0,0
13.2.16 998,2 989,1 994,6 -0,2 88,0 -1,9 -1,2 4,6 80,0 -3,7 1,5 31,6 0,0
14.2.16 999,2 987,5 991,7 4,1 89,5 2,5 4,0 1,9 83,5 0,9 7,1 16,9 3,5
15.2.16 1023,2 999,3 1010,5 2,3 91,0 0,9 2,2 0,9 83,8 0,1 3,9 14,4 0,3
16.2.16 1034,1 1023,5 1031,2 -1,5 89,2 -3,0 -2,2 3,6 83,8 -2,4 -0,1 34,9 0,0
17.2.16 1031,5 1014,5 1020,9 -0,7 88,1 -2,4 -1,8 4,3 83,8 -2,4 0,1 29,5 0,0
18.2.16 1017,6 1015,6 1016,5 1,2 84,9 -1,1 0,9 1,8 83,8 -1,6 5,8 19,0 0,0
19.2.16 1022,5 1016,1 1019,2 -0,3 87,3 -2,2 -0,9 2,3 83,8 -4,2 3,6 22,6 0,0
20.2.16 1021,9 1011,0 1016,9 1,6 89,1 -0,0 0,4 5,1 87,5 -0,1 4,9 32,7 3,7
21.2.16 1014,1 1010,1 1012,4 8,1 94,7 7,3 5,7 9,2 98,2 5,0 9,1 50,7 10,7
22.2.16 1011,7 1008,0 1009,5 7,8 85,1 5,4 5,8 8,1 99,4 6,6 8,4 40,6 1,2
23.2.16 1016,5 1008,0 1011,1 1,3 91,7 0,1 1,0 1,7 110,6 -0,2 6,7 18,3 11,2
24.2.16 1018,8 1013,5 1016,5 0,8 85,1 -1,4 0,5 2,2 115,4 -3,5 6,9 22,3 4,8
25.2.16 1015,3 1010,9 1012,7 -1,1 82,9 -3,8 -1,2 0,8 116,5 -5,6 7,4 16,9 1,1
26.2.16 1015,7 1011,0 1013,7 -1,6 78,3 -5,0 -1,7 0,6 116,5 -6,9 4,9 15,4 0,0
27.2.16 1011,5 1008,3 1010,1 -0,3 74,9 -4,4 -1,0 3,6 116,5 -4,1 8,4 27,3 0,0
28.2.16 1017,6 1011,0 1014,3 -1,4 85,6 -3,5 -1,8 2,3 116,5 -6,4 3,1 25,9 0,0
29.2.16 1017,6 1014,9 1015,9 -1,0 93,2 -1,9 -2,3 5,8 116,5 -2,1 -0,1 32,4 0,0
1.3.16 1019,0 1012,7 1017,0 -1,4 90,3 -2,8 -2,0 3,0 118,0 -2,5 0,8 27,7 1,5
2.3.16 1012,5 999,9 1004,9 2,2 92,4 1,1 1,8 2,5 123,3 0,5 4,7 28,8 5,3
3.3.16 1007,2 1001,5 1003,7 0,9 84,9 -1,4 0,8 1,2 123,5 -3,6 3,9 16,9 0,2
4.3.16 1007,6 999,1 1004,3 0,8 80,3 -2,2 -0,8 5,4 123,5 -4,6 5,2 31,5 0,0
5.3.16 999,1 996,1 997,6 3,5 76,1 -0,4 2,7 4,1 125,4 1,0 7,8 23,4 1,9
6.3.16 1003,4 997,0 1000,4 1,9 88,2 0,1 1,5 2,7 131,8 0,6 5,0 25,9 6,4
7.3.16 1008,4 1002,2 1005,1 1,3 84,3 -1,1 1,0 1,8 133,7 -2,2 5,2 20,8 1,9
8.3.16 1018,4 1008,2 1013,7 0,5 84,1 -2,0 0,5 0,4 133,7 -2,7 6,4 11,8 0,0
9.3.16 1017,3 1010,0 1013,1 0,4 81,4 -2,5 -0,9 5,2 133,7 -3,5 7,5 33,1 0,0
10.3.16 1022,2 1010,6 1017,1 1,1 86,1 -1,1 1,0 1,3 133,7 -4,2 5,7 14,4 0,0
11.3.16 1027,9 1022,0 1025,3 2,3 87,8 0,4 2,2 1,6 133,7 -0,6 5,0 19,0 0,0
12.3.16 1030,3 1026,6 1028,2 1,6 87,6 -0,3 1,3 2,7 133,7 0,5 3,8 27,7 0,0
13.3.16 1033,5 1029,2 1031,5 0,5 93,2 -0,4 -0,0 3,3 133,7 -0,8 2,7 26,2 0,0
14.3.16 1032,6 1026,9 1030,8 2,2 76,8 -1,6 1,9 2,5 133,7 -1,5 10,4 23,7 0,0
15.3.16 1026,9 1022,6 1024,2 1,0 86,8 -0,9 0,5 2,8 135,5 -1,5 4,4 29,5 1,8
16.3.16 1029,6 1024,6 1027,6 2,3 75,8 -1,6 -0,0 8,2 135,5 -0,3 6,9 37,0 0,0
17.3.16 1028,5 1023,2 1026,1 5,1 68,2 -0,7 4,3 4,2 135,5 -1,3 13,0 24,8 0,0
18.3.16 1023,1 1016,9 1019,4 6,1 67,6 -0,5 6,0 1,4 135,5 -3,9 18,1 21,2 0,0
19.3.16 1019,9 1018,1 1019,1 3,8 82,5 1,0 3,8 0,7 135,5 2,6 6,4 11,1 0,0
20.3.16 1018,9 1016,1 1017,3 3,2 76,6 -0,5 2,8 2,6 135,5 1,8 5,6 19,4 0,0
21.3.16 1017,1 1014,2 1015,8 4,2 80,5 1,1 3,3 4,4 135,5 2,0 9,6 27,3 0,0
22.3.16 1014,2 1010,5 1012,2 4,0 83,1 1,3 3,5 3,0 135,9 2,4 6,4 25,5 0,4
23.3.16 1010,6 1008,2 1009,4 3,9 86,8 1,8 3,9 0,8 139,8 2,3 7,5 22,3 3,9
24.3.16 1015,6 1010,4 1013,4 4,5 72,4 -0,2 4,2 1,6 140,0 1,9 9,1 27,0 0,2
25.3.16 1016,2 1012,3 1013,9 4,0 87,1 1,9 3,7 1,8 146,9 2,8 5,4 19,8 6,9
26.3.16 1021,4 1016,2 1019,0 4,8 87,1 2,7 4,8 1,2 147,3 1,2 8,4 16,9 0,4
27.3.16 1016,4 1012,3 1013,9 5,5 81,5 2,3 4,6 3,6 147,5 -0,2 14,3 31,6 0,2
28.3.16 1014,2 1003,9 1009,0 6,9 77,1 2,8 5,4 6,2 154,5 -0,2 13,4 33,4 7,0
29.3.16 1013,9 1005,0 1010,0 7,0 73,1 2,2 5,5 6,7 156,3 3,9 11,9 50,4 1,8
30.3.16 1013,9 1011,0 1012,8 6,7 83,7 4,1 6,1 3,3 158,0 1,8 10,4 28,8 1,7
31.3.16 1013,4 1010,5 1011,9 7,6 89,8 6,0 7,4 1,9 165,7 3,9 14,3 25,5 7,7
1.4.16 1023,4 1010,3 1018,0 4,0 86,2 1,7 3,2 3,5 169,7 0,8 9,6 29,1 4,0
2.4.16 1022,8 1017,2 1020,2 8,6 64,0 1,7 7,2 6,4 169,7 1,2 15,5 33,8 0,0
3.4.16 1017,2 1012,1 1014,5 12,9 63,6 5,9 12,2 4,4 169,7 6,4 23,1 30,2 0,0
4.4.16 1011,9 1008,9 1009,8 13,8 70,5 7,9 13,7 1,1 169,7 6,9 23,8 20,8 0,0
5.4.16 1011,6 1007,3 1008,6 14,5 72,0 9,0 13,9 3,9 171,4 7,6 22,5 28,4 1,7
6.4.16 1014,4 1010,6 1012,5 10,9 71,2 5,4 10,3 3,7 173,0 7,8 14,4 33,8 1,6
7.4.16 1013,4 1009,5 1011,2 9,2 64,5 2,7 8,3 4,5 173,0 4,2 12,1 39,6 0,0
8.4.16 1013,4 1010,3 1012,0 8,5 61,9 0,9 8,5 0,4 173,0 4,0 16,8 23,0 0,0
9.4.16 1011,1 1008,4 1009,9 7,0 62,8 -0,3 6,8 1,8 173,0 -1,2 15,9 24,1 0,0
10.4.16 1015,8 1011,0 1013,6 7,3 67,7 1,1 7,1 1,6 173,0 -0,4 16,7 27,0 0,0
11.4.16 1015,7 1013,4 1014,7 6,5 77,3 2,7 6,2 2,2 173,0 -0,2 11,9 14,0 0,0
12.4.16 1013,9 1010,4 1012,4 10,1 70,7 4,5 10,0 1,4 173,0 1,4 18,9 24,4 0,0
13.4.16 1010,9 1006,7 1009,1 10,6 74,9 5,9 10,6 0,9 180,5 4,2 18,5 31,6 7,5
14.4.16 1014,1 1008,4 1011,8 8,8 81,0 5,5 8,5 2,3 185,4 3,4 14,4 26,5 4,9
15.4.16 1013,6 1007,2 1009,4 7,4 84,2 4,8 6,8 3,9 186,3 2,1 12,7 31,3 0,9
16.4.16 1008,0 1004,8 1006,6 9,6 84,6 7,0 8,8 4,7 188,0 8,0 12,3 28,0 1,7
17.4.16 1017,0 1004,4 1010,0 7,3 89,1 5,5 7,2 1,3 203,7 3,2 11,5 26,6 15,7
18.4.16 1022,4 1016,8 1019,6 7,8 72,1 2,4 7,8 0,4 203,7 2,1 14,9 24,4 0,0
19.4.16 1026,2 1022,3 1024,0 5,6 73,5 1,0 4,8 3,8 203,7 -1,1 11,3 31,6 0,0
20.4.16 1030,0 1026,3 1028,5 7,0 64,5 -0,1 7,0 0,6 203,7 -1,4 15,2 19,8 0,0
21.4.16 1028,5 1020,2 1024,8 9,6 57,0 -0,1 9,6 0,9 203,7 -1,5 20,6 14,7 0,0
22.4.16 1020,3 1014,3 1017,8 8,4 65,0 1,7 8,4 1,0 203,7 0,9 16,9 17,2 0,0
23.4.16 1014,3 1008,9 1010,7 4,3 82,0 1,4 4,2 1,1 208,5 0,7 7,8 21,7 4,8
24.4.16 1013,9 1009,7 1011,5 1,8 81,2 -1,2 1,4 2,1 211,1 -1,9 8,2 44,9 2,6
25.4.16 1011,6 1005,0 1010,0 2,5 77,9 -1,1 1,2 5,4 215,5 -0,8 6,9 36,7 4,4
26.4.16 1004,8 1000,0 1002,4 2,9 80,6 -0,3 1,5 5,6 222,1 0,6 6,3 42,4 6,6
27.4.16 1012,3 1003,3 1007,6 2,4 80,0 -0,8 1,3 5,1 222,3 0,3 4,9 39,9 0,2
28.4.16 1017,7 1012,2 1014,9 4,6 69,0 -1,2 3,9 3,6 222,3 0,8 10,8 31,6 0,0
29.4.16 1020,3 1017,7 1018,9 5,9 66,9 -0,5 5,3 3,3 222,3 -0,7 13,9 23,7 0,0
30.4.16 1018,6 1015,8 1017,3 10,5 53,1 0,4 10,1 3,1 222,3 1,0 17,9 25,5 0,0
1.5.16 1024,1 1016,1 1019,9 10,7 64,8 4,0 9,9 4,3 222,3 5,0 16,6 25,2 0,0
2.5.16 1024,4 1020,6 1022,7 11,1 62,2 3,3 10,9 2,1 222,3 1,2 19,1 29,5 0,0
3.5.16 1024,1 1017,4 1019,6 9,4 71,9 3,9 9,2 2,0 229,0 0,5 22,1 29,8 6,7
4.5.16 1028,8 1023,8 1026,8 8,3 69,9 2,7 8,0 2,2 229,0 4,4 14,7 23,4 0,0
5.5.16 1028,5 1022,7 1026,1 11,8 63,6 4,6 11,3 3,2 229,0 5,8 18,1 28,4 0,0
6.5.16 1023,0 1017,1 1019,9 14,3 57,7 4,9 13,6 5,1 229,0 4,3 21,9 36,0 0,0
7.5.16 1017,7 1015,3 1016,7 16,6 45,8 4,2 15,6 7,8 229,0 10,1 22,2 36,7 0,0
8.5.16 1018,5 1016,8 1017,7 15,7 51,1 5,3 14,5 7,3 229,0 8,3 20,6 35,6 0,0
9.5.16 1019,1 1017,2 1018,2 16,7 55,6 7,2 15,9 6,3 229,0 9,8 22,7 24,4 0,0
10.5.16 1018,0 1012,4 1014,7 16,7 57,4 7,7 15,7 6,8 229,0 8,2 23,0 36,0 0,0
11.5.16 1013,1 1006,4 1010,1 15,2 64,0 8,0 13,4 9,4 229,0 10,4 20,6 38,5 0,0
12.5.16 1006,2 1001,1 1003,0 13,9 73,0 9,1 12,7 6,9 229,3 11,3 18,9 33,8 0,3
13.5.16 1004,1 999,6 1001,4 14,5 76,1 10,0 14,1 3,1 229,3 11,6 21,2 27,0 0,0
14.5.16 1013,0 1004,0 1008,1 9,8 67,3 3,7 9,8 1,2 229,3 3,6 16,8 20,5 0,0
15.5.16 1018,5 1013,2 1016,1 5,3 74,8 1,1 4,1 4,9 233,8 2,3 10,1 34,9 4,5
16.5.16 1018,7 1017,1 1017,9 7,6 66,6 1,1 7,3 2,1 233,8 3,9 13,9 30,6 0,0
17.5.16 1018,5 1016,9 1017,8 8,3 66,4 2,3 7,2 4,6 233,8 5,1 11,1 31,6 0,0
18.5.16 1017,2 1011,0 1014,4 12,0 55,0 2,8 11,6 2,7 233,8 7,7 18,1 26,6 0,0
19.5.16 1017,9 1009,2 1012,4 12,3 67,4 6,3 12,1 1,5 233,8 8,5 17,3 16,9 0,0
20.5.16 1021,4 1017,8 1020,0 14,0 65,5 7,0 13,6 3,0 233,8 6,8 20,6 30,9 0,0
21.5.16 1021,4 1018,4 1020,1 15,7 62,0 7,8 15,6 1,6 233,8 7,9 23,5 19,4 0,0
22.5.16 1018,6 1009,9 1013,9 20,2 52,1 8,6 19,6 5,7 237,2 9,9 29,4 28,0 3,4
23.5.16 1012,5 1011,0 1011,7 13,8 85,2 11,3 13,5 3,0 255,3 11,8 17,1 21,6 18,1
24.5.16 1015,4 1010,4 1012,5 11,7 93,3 10,6 11,6 1,0 280,4 9,6 13,6 16,5 25,1
25.5.16 1017,7 1014,9 1016,0 12,7 85,1 10,1 12,7 1,1 280,4 9,3 18,9 18,3 0,0
26.5.16 1018,8 1016,8 1018,0 16,2 68,2 9,6 16,1 2,0 280,8 9,4 23,6 25,2 0,4
27.5.16 1018,7 1017,1 1017,8 14,9 78,1 10,8 14,8 0,7 281,8 8,1 23,8 16,9 1,0
28.5.16 1017,7 1012,6 1015,5 17,1 80,0 13,4 17,1 0,8 281,8 10,6 25,8 24,4 0,0
29.5.16 1012,7 1006,0 1009,3 19,0 76,7 14,6 18,8 2,9 282,0 12,5 25,4 27,7 0,2
30.5.16 1011,0 1004,9 1007,7 16,1 82,8 13,1 15,8 3,1 293,0 13,3 19,9 15,4 11,0
31.5.16 1014,6 1011,1 1012,8 16,7 73,0 11,4 16,5 2,0 293,3 9,2 23,7 24,1 0,3
1.6.16 1014,6 1012,7 1013,7 15,6 85,5 13,0 15,3 2,3 306,7 10,4 23,2 28,8 13,1
2.6.16 1013,8 1012,1 1013,0 14,8 84,8 11,9 14,7 1,4 306,9 9,6 21,9 21,2 0,2
3.6.16 1013,8 1012,2 1012,9 14,1 91,9 12,8 14,1 0,2 332,9 10,9 18,6 14,0 26,0
4.6.16 1016,8 1013,6 1014,8 17,6 82,6 14,4 17,6 0,6 334,5 12,9 23,0 14,7 1,6
5.6.16 1021,0 1016,5 1018,4 17,3 82,4 14,0 17,3 0,6 342,4 11,6 25,2 13,6 8,5
6.6.16 1024,2 1020,7 1022,3 19,7 68,7 13,0 19,7 1,4 342,4 9,8 29,1 25,9 0,0
7.6.16 1025,7 1023,1 1024,5 20,1 56,1 9,9 20,0 1,3 342,4 11,0 28,6 16,9 0,0
8.6.16 1023,5 1018,7 1020,7 17,5 69,0 11,0 17,2 2,2 348,7 9,6 27,9 23,4 6,3
9.6.16 1019,2 1017,4 1018,5 15,4 74,2 10,5 15,3 1,6 348,7 10,4 20,9 18,3 0,0
10.6.16 1018,0 1013,1 1015,0 16,0 66,2 9,1 15,9 1,4 348,7 7,9 23,6 24,1 0,0
11.6.16 1014,5 1012,9 1013,6 14,6 71,6 9,4 14,6 0,4 349,0 9,2 21,1 12,2 0,3
12.6.16 1014,0 1008,1 1011,1 14,6 87,3 12,4 14,5 1,0 365,1 12,2 17,8 17,2 16,1
13.6.16 1008,3 1004,0 1006,0 15,0 85,2 12,4 14,9 2,0 368,9 12,4 20,6 29,8 3,8
14.6.16 1004,8 1002,5 1003,9 15,8 77,6 11,5 15,5 2,6 373,3 12,5 21,4 27,7 4,4
15.6.16 1007,1 1003,2 1004,6 14,4 79,9 10,8 14,3 1,5 375,8 10,0 20,1 21,9 2,5
16.6.16 1007,3 1004,5 1006,4 13,5 84,2 10,8 13,5 0,8 378,1 6,8 18,4 16,5 2,3
17.6.16 1016,1 1003,7 1008,8 13,4 88,5 11,5 13,2 2,5 404,3 11,1 17,8 34,2 26,2
18.6.16 1020,4 1016,0 1018,3 15,5 74,7 10,7 15,1 3,7 404,6 8,5 22,9 43,5 0,3
19.6.16 1025,5 1020,2 1023,1 15,2 76,7 10,8 15,1 0,9 405,3 10,0 23,5 24,8 0,7
20.6.16 1025,8 1020,7 1023,3 16,7 66,9 9,8 16,6 1,9 405,3 8,4 23,8 28,8 0,0
21.6.16 1025,8 1020,4 1023,2 17,3 72,4 12,0 17,0 3,1 405,3 13,3 23,2 25,9 0,0
22.6.16 1027,6 1025,7 1026,7 21,1 69,0 14,7 21,1 1,1 405,3 15,9 28,7 16,2 0,0
23.6.16 1027,5 1023,3 1025,9 23,7 61,7 15,0 23,6 4,5 405,3 13,8 31,3 31,3 0,0
24.6.16 1023,3 1020,1 1021,6 26,3 54,7 15,5 26,1 3,9 405,3 16,5 33,1 24,8 0,0
25.6.16 1020,2 1015,5 1016,8 23,7 65,8 16,5 23,5 4,1 408,0 16,4 30,3 37,0 2,7
26.6.16 1021,8 1018,0 1020,6 18,1 65,4 10,9 17,8 3,9 408,0 12,3 24,2 28,4 0,0
27.6.16 1022,8 1020,8 1022,1 16,7 62,6 8,9 16,2 4,2 408,0 10,1 22,9 36,0 0,0
28.6.16 1022,3 1018,0 1020,7 18,5 68,9 12,4 18,4 2,2 408,0 14,3 24,3 26,2 0,0
29.6.16 1018,0 1016,1 1017,2 19,4 70,2 13,3 19,0 4,2 414,0 14,9 24,6 35,2 6,0
30.6.16 1019,4 1016,3 1017,8 18,7 70,9 13,0 18,5 2,5 414,0 13,3 24,4 31,3 0,0
1.7.16 1020,6 1018,9 1019,6 20,4 66,2 13,2 20,1 3,5 414,0 11,9 26,9 34,5 0,0
2.7.16 1021,9 1016,0 1017,9 16,7 80,4 13,2 16,5 2,7 418,5 12,4 22,4 30,2 4,5
3.7.16 1024,6 1021,7 1022,8 13,8 75,9 9,2 13,4 2,8 420,8 7,5 20,6 32,4 2,3
4.7.16 1024,8 1021,8 1023,7 15,9 65,5 8,6 15,8 1,9 420,8 5,4 23,5 27,3 0,0
5.7.16 1021,7 1017,0 1018,5 19,7 62,1 11,9 19,1 5,7 420,8 14,7 25,2 36,0 0,0
6.7.16 1023,0 1017,6 1020,5 15,5 63,1 8,1 14,6 5,8 420,8 10,9 20,1 35,6 0,0
7.7.16 1024,3 1022,7 1023,3 16,8 56,8 7,1 16,6 2,2 420,8 7,4 24,3 25,2 0,0
8.7.16 1023,1 1018,7 1020,5 19,8 55,7 10,0 19,5 3,5 420,8 10,8 28,9 36,7 0,0
9.7.16 1022,3 1019,7 1021,4 19,4 63,2 11,8 19,0 4,5 420,8 12,6 25,3 34,2 0,0
10.7.16 1021,6 1015,6 1019,1 21,7 61,5 13,3 21,7 2,0 420,8 11,2 30,1 20,1 0,0
11.7.16 1016,9 1014,2 1015,6 24,1 61,9 15,6 23,9 4,4 422,6 18,1 30,9 35,2 1,8
12.7.16 1017,1 1015,6 1016,3 18,7 72,7 13,4 18,6 1,9 422,6 15,4 22,8 27,0 0,0
13.7.16 1016,4 1014,7 1015,4 16,2 79,7 12,4 16,1 1,3 427,0 12,9 23,5 20,8 4,4
14.7.16 1021,2 1014,7 1017,4 12,3 86,8 10,1 12,0 2,9 453,2 9,7 15,4 26,2 26,2
15.7.16 1027,2 1021,3 1024,7 13,1 77,1 9,0 12,9 2,6 454,2 9,5 17,4 21,9 1,0
16.7.16 1027,6 1024,8 1026,3 16,6 66,8 9,7 16,3 3,3 454,2 7,4 24,1 28,8 0,0
17.7.16 1025,3 1022,2 1023,6 18,3 82,7 15,2 18,2 1,3 467,1 16,1 23,8 23,0 12,9
18.7.16 1024,7 1022,7 1023,7 20,9 68,4 14,0 20,9 1,1 467,1 14,5 27,8 25,2 0,0
19.7.16 1025,2 1023,4 1024,5 22,1 60,3 12,9 22,1 1,3 467,1 11,8 30,8 20,8 0,0
20.7.16 1023,5 1019,4 1021,6 23,4 57,4 13,1 23,3 1,7 467,1 12,9 32,8 19,0 0,0
21.7.16 1020,0 1016,9 1018,7 18,8 83,0 15,7 18,7 1,4 479,9 17,1 20,8 14,4 12,8
22.7.16 1020,3 1018,8 1019,6 21,9 73,2 16,3 21,8 1,7 479,9 14,6 28,0 20,8 0,0
23.7.16 1021,9 1018,8 1020,3 19,7 84,3 16,9 19,7 0,6 503,4 16,9 25,1 16,5 23,5
24.7.16 1022,6 1020,7 1021,8 20,2 83,0 16,8 20,2 1,2 503,4 16,0 28,9 28,4 0,0
25.7.16 1023,2 1021,1 1021,9 22,6 72,3 16,6 22,6 0,2 503,4 17,2 30,6 13,3 0,0
26.7.16 1023,3 1021,6 1022,6 21,0 78,0 16,7 20,9 1,2 503,4 15,5 27,5 19,4 0,0
27.7.16 1022,5 1018,7 1020,1 20,6 79,8 16,8 20,6 2,1 505,7 16,5 28,1 40,3 2,3
28.7.16 1020,8 1018,2 1019,8 20,0 69,3 13,6 19,8 2,4 505,7 12,7 26,2 24,4 0,0
29.7.16 1018,5 1016,9 1017,7 19,8 73,0 14,6 19,6 2,9 507,0 16,3 24,8 34,5 1,3
30.7.16 1018,0 1016,9 1017,4 20,4 69,3 14,2 20,2 3,2 507,0 12,6 26,4 28,4 0,0
31.7.16 1018,7 1015,1 1016,0 18,0 85,3 15,4 17,9 1,7 531,1 14,5 23,1 21,9 24,1
1.8.16 1022,4 1018,5 1021,2 16,4 69,6 10,2 16,1 3,1 531,1 10,8 22,6 32,4 0,0
2.8.16 1022,1 1018,4 1020,1 13,7 84,7 11,1 13,5 2,7 533,2 9,4 19,0 35,8 2,1
3.8.16 1019,9 1016,5 1017,8 17,1 88,9 15,2 16,9 2,3 534,6 14,3 20,3 24,1 1,4
4.8.16 1017,0 1014,6 1016,1 20,7 72,3 14,9 20,6 2,3 535,1 14,5 27,9 29,5 0,5
5.8.16 1024,0 1015,4 1019,1 16,7 79,4 12,9 16,5 2,5 556,1 13,2 21,6 22,6 21,0
6.8.16 1030,2 1023,8 1026,7 17,1 72,2 11,6 16,9 2,6 556,1 10,5 23,3 30,2 0,0
7.8.16 1030,6 1026,5 1029,3 18,4 65,3 11,0 18,2 3,4 556,1 9,7 25,8 32,1 0,0
8.8.16 1026,4 1021,3 1023,2 20,2 64,7 12,7 20,0 3,1 556,1 11,0 27,4 32,7 0,0
9.8.16 1022,7 1020,8 1021,7 15,0 79,2 11,2 14,9 1,4 563,2 11,9 20,7 21,9 7,1
10.8.16 1023,7 1020,3 1021,3 11,8 83,5 9,0 11,8 0,7 568,1 7,2 17,2 20,8 4,9
11.8.16 1025,6 1023,5 1024,5 11,5 67,6 4,8 11,1 3,0 568,1 2,9 18,1 30,6 0,0
12.8.16 1027,6 1023,2 1025,1 12,8 89,6 11,0 12,5 2,5 572,2 9,9 15,8 27,0 4,1
13.8.16 1027,6 1024,3 1025,7 19,1 76,4 14,4 19,0 2,7 572,2 14,4 25,5 30,4 0,0
14.8.16 1025,8 1024,2 1024,7 19,0 69,8 12,8 19,0 1,0 572,2 10,9 28,1 20,8 0,0
15.8.16 1026,0 1023,6 1024,8 18,5 67,0 11,5 18,4 1,6 572,2 10,9 27,3 20,5 0,0
16.8.16 1024,1 1018,4 1020,9 17,1 62,7 9,0 16,9 1,9 572,2 9,8 25,2 20,1 0,0
17.8.16 1018,7 1015,8 1017,3 14,2 68,5 7,7 14,1 1,2 572,2 6,4 23,3 16,9 0,0
18.8.16 1015,9 1011,9 1013,4 16,8 59,1 7,3 16,8 1,1 572,2 5,4 26,4 24,1 0,0
19.8.16 1016,5 1013,4 1014,8 18,0 61,3 9,5 18,0 1,8 572,2 6,8 28,1 12,9 0,0
20.8.16 1019,8 1015,7 1017,2 20,5 65,8 13,0 20,3 3,3 573,1 15,2 28,4 27,3 0,9
21.8.16 1025,5 1019,0 1021,4 16,4 74,5 11,5 16,0 3,5 577,6 13,0 22,5 36,0 4,5
22.8.16 1030,7 1025,4 1028,2 16,4 71,0 10,8 16,1 3,3 577,6 12,0 22,6 31,6 0,0
23.8.16 1030,8 1029,1 1030,0 20,8 64,7 13,2 20,8 1,4 577,6 13,9 29,1 19,6 0,0
24.8.16 1029,6 1026,8 1028,2 21,1 64,9 13,4 21,0 2,1 577,6 12,0 29,2 24,1 0,0
25.8.16 1026,9 1022,7 1024,6 21,5 58,5 11,9 21,2 4,6 577,6 12,8 28,8 32,4 0,0
26.8.16 1023,8 1021,5 1022,7 23,1 53,0 11,9 22,9 3,5 577,6 16,3 31,8 23,4 0,0
27.8.16 1024,4 1022,3 1023,3 23,8 55,8 13,3 23,8 2,2 577,6 12,8 34,9 16,5 0,0
28.8.16 1022,5 1018,2 1019,8 23,4 58,4 14,2 23,4 2,7 577,6 13,9 31,6 26,2 0,0
29.8.16 1024,8 1018,5 1021,1 20,7 66,1 13,6 20,6 1,9 577,6 16,1 27,0 34,9 0,0
30.8.16 1028,7 1024,6 1027,0 17,6 62,8 9,6 17,6 1,7 577,6 10,7 25,0 19,0 0,0
31.8.16 1027,3 1022,9 1024,9 16,7 58,5 7,4 16,4 3,3 577,6 7,3 25,4 21,6 0,0
1.9.16 1024,6 1023,1 1023,8 19,3 60,1 10,6 19,2 1,1 577,6 9,8 29,3 24,4 0,0
2.9.16 1024,4 1022,2 1023,4 18,8 64,0 10,8 18,7 1,9 577,6 10,2 28,5 25,5 0,0
3.9.16 1022,4 1019,7 1021,3 18,5 66,3 11,6 18,4 2,0 577,6 12,4 25,8 26,8 0,0
4.9.16 1019,5 1014,2 1016,7 17,0 76,4 12,6 16,7 3,2 580,1 12,4 22,7 30,2 2,5
5.9.16 1024,7 1015,5 1019,3 14,7 85,8 12,3 14,0 4,5 582,9 12,8 17,5 32,7 2,8
6.9.16 1029,4 1024,6 1027,8 17,2 75,0 12,3 17,1 2,5 583,3 11,2 23,0 25,5 0,4
7.9.16 1029,2 1020,5 1024,9 18,0 70,2 12,0 17,6 5,0 583,3 8,6 25,8 32,4 0,0
8.9.16 1020,7 1016,4 1017,8 20,6 67,3 13,8 20,5 3,6 583,3 13,4 27,9 27,0 0,0
9.9.16 1021,4 1017,4 1019,8 19,8 70,8 13,8 19,8 0,8 583,3 11,9 29,6 19,8 0,0
10.9.16 1021,2 1019,1 1020,3 20,3 67,9 13,3 20,3 1,1 583,3 11,2 29,8 17,2 0,0
11.9.16 1023,0 1019,2 1021,2 21,8 62,9 13,2 21,8 0,8 583,3 12,3 32,3 14,4 0,0
12.9.16 1023,3 1021,9 1022,5 21,7 61,6 12,9 21,6 2,6 583,3 12,4 30,7 24,1 0,0
13.9.16 1022,1 1019,3 1020,7 22,3 58,5 12,8 22,2 2,9 583,3 13,3 30,3 25,2 0,0
14.9.16 1019,4 1018,2 1018,7 21,5 58,8 12,4 21,4 3,3 583,3 12,6 28,8 32,4 0,0
15.9.16 1018,2 1015,3 1016,5 21,5 53,2 11,1 21,0 6,0 583,3 16,1 27,6 31,6 0,0
16.9.16 1016,7 1014,5 1015,6 18,0 77,7 13,9 17,9 1,7 589,3 13,2 25,2 20,5 6,0
17.9.16 1014,9 1012,7 1013,5 14,5 93,3 13,4 14,5 1,4 615,0 13,3 16,3 23,0 25,7
18.9.16 1015,8 1013,2 1014,3 12,3 94,8 11,5 12,0 2,9 633,8 10,3 14,4 26,6 18,8
19.9.16 1020,2 1015,5 1017,7 11,0 94,6 10,1 10,9 1,1 637,0 9,9 12,4 18,0 3,2
20.9.16 1021,4 1019,4 1020,2 11,7 80,7 8,2 11,6 1,1 637,0 7,6 18,2 16,2 0,0
21.9.16 1022,7 1020,6 1021,5 10,6 77,0 6,4 10,6 0,3 637,0 2,6 18,4 7,5 0,0
22.9.16 1024,8 1022,6 1023,7 11,4 77,5 7,1 11,2 2,0 637,0 3,8 22,1 19,0 0,0
23.9.16 1028,1 1024,1 1025,9 13,2 72,7 7,7 13,1 1,6 637,0 7,1 23,9 20,5 0,0
24.9.16 1028,6 1025,4 1027,3 13,0 71,7 7,1 13,0 0,4 637,0 4,2 26,1 12,9 0,0
25.9.16 1025,4 1021,6 1023,3 13,1 71,5 7,3 13,0 1,9 637,0 4,4 22,4 18,0 0,0
26.9.16 1025,3 1022,2 1023,7 12,1 82,3 9,0 12,0 0,9 637,0 6,1 20,2 16,9 0,0
27.9.16 1029,7 1024,6 1027,2 13,4 81,6 10,0 13,4 0,4 637,0 8,1 22,4 11,5 0,0
28.9.16 1029,5 1026,3 1028,0 13,6 75,3 8,9 13,1 3,9 637,0 6,2 21,5 35,2 0,0
29.9.16 1027,2 1017,3 1022,4 17,6 67,5 11,1 17,2 4,6 637,0 11,0 24,9 31,6 0,0
30.9.16 1018,1 1016,8 1017,4 17,2 67,6 10,8 16,9 3,2 637,0 11,6 24,2 34,2 0,0
1.10.16 1017,4 1012,2 1014,0 15,3 76,8 10,9 15,0 3,2 637,0 9,6 25,4 23,0 0,0
2.10.16 1018,8 1013,8 1016,0 12,2 80,4 8,8 12,0 2,6 637,8 8,9 18,4 29,1 0,8
3.10.16 1027,0 1018,7 1022,6 9,9 86,2 7,6 9,7 2,2 642,6 8,8 12,8 26,9 4,8
4.10.16 1033,0 1026,8 1029,8 8,8 87,4 6,7 8,2 3,6 645,7 2,8 11,3 32,4 3,1
5.10.16 1033,1 1023,4 1029,6 5,9 86,4 3,7 5,8 2,2 654,4 2,3 11,9 25,2 8,7
6.10.16 1023,2 1018,7 1019,8 7,0 93,5 6,0 6,7 2,6 662,4 5,8 8,9 24,8 8,0
7.10.16 1021,0 1018,5 1019,8 7,5 89,1 5,8 7,4 1,1 662,6 5,5 9,8 12,9 0,2
8.10.16 1024,0 1019,5 1021,7 6,7 90,6 5,3 6,7 0,3 664,3 5,0 8,4 13,4 1,7
9.10.16 1026,0 1023,0 1024,3 6,4 85,9 4,1 6,4 0,3 665,9 1,1 11,6 10,8 1,6
10.10.16 1025,9 1022,4 1024,2 5,8 80,8 2,5 5,8 0,8 665,9 1,3 14,4 16,5 0,0
11.10.16 1022,5 1019,1 1020,3 6,1 84,9 3,6 6,0 1,2 665,9 4,2 11,9 20,2 0,0
12.10.16 1021,1 1018,1 1019,6 5,6 89,6 4,0 5,6 0,9 666,7 4,9 7,0 15,4 0,8
13.10.16 1021,0 1016,6 1018,9 6,1 85,7 3,8 4,9 5,1 666,7 5,1 7,8 24,1 0,0
14.10.16 1016,5 1010,7 1013,7 7,2 84,3 4,6 3,6 11,5 666,7 5,1 12,4 40,3 0,0
15.10.16 1021,4 1010,1 1015,4 10,4 84,9 7,8 9,9 3,2 666,7 7,2 16,8 26,6 0,0
16.10.16 1025,8 1021,3 1023,8 10,6 80,8 7,0 10,6 0,3 666,7 3,6 22,7 10,0 0,0
17.10.16 1025,7 1023,4 1024,8 9,6 85,0 7,1 9,4 2,6 666,7 3,8 18,4 17,6 0,0
18.10.16 1024,5 1020,7 1022,8 10,2 89,0 8,4 10,1 0,9 666,7 8,3 15,0 18,0 0,0
19.10.16 1020,5 1015,1 1017,2 7,9 86,5 5,7 7,4 3,5 672,1 6,8 9,9 25,2 5,4
20.10.16 1015,7 1013,1 1014,4 5,0 90,2 3,5 4,8 1,5 680,2 3,6 6,9 16,5 8,1
21.10.16 1016,2 1012,2 1014,1 4,8 89,8 3,2 4,5 1,5 682,6 2,5 7,4 24,4 2,4
22.10.16 1016,4 1013,8 1014,9 4,4 92,1 3,2 4,3 1,1 684,4 2,3 6,1 18,3 1,8
23.10.16 1016,6 1015,4 1015,9 6,0 88,8 4,2 5,6 2,7 684,4 3,6 10,3 21,2 0,0
24.10.16 1017,5 1015,3 1016,2 7,8 92,7 6,6 7,4 2,6 688,7 5,1 10,6 19,0 4,3
25.10.16 1026,2 1016,4 1021,3 10,8 93,2 9,7 10,8 0,7 696,0 9,2 12,2 15,8 7,3
26.10.16 1030,4 1026,1 1028,3 8,3 89,2 6,5 8,3 0,3 696,0 4,5 15,6 12,6 0,0
27.10.16 1034,8 1030,0 1032,6 7,2 90,9 5,7 7,1 0,9 696,3 4,4 12,8 15,8 0,3
28.10.16 1034,3 1032,1 1033,0 7,5 90,5 6,0 7,0 2,9 698,7 3,0 11,6 31,6 2,4
29.10.16 1033,4 1031,1 1032,1 8,9 83,1 6,0 8,8 1,9 699,1 6,6 12,9 26,6 0,4
30.10.16 1031,7 1029,7 1030,4 6,9 87,5 4,9 6,8 2,0 699,1 4,1 9,9 21,2 0,0
31.10.16 1030,8 1027,5 1029,2 7,3 84,4 4,6 7,3 0,2 699,1 2,4 16,4 12,2 0,0
1.11.16 1027,4 1016,5 1021,8 6,4 78,7 2,4 6,1 2,2 699,1 -0,4 17,1 20,5 0,0
2.11.16 1018,0 1015,3 1016,4 5,2 86,2 3,0 3,7 5,6 703,2 2,9 8,9 33,8 4,1
3.11.16 1023,0 1017,8 1021,3 3,1 85,5 0,9 2,9 1,5 703,8 -0,4 6,4 22,3 0,6
4.11.16 1021,8 1011,6 1016,9 2,6 86,2 0,4 2,4 2,3 703,8 -1,2 6,1 21,6 0,0
5.11.16 1011,5 999,6 1004,3 5,3 90,0 3,7 4,7 3,4 706,1 3,3 7,8 22,8 2,3
6.11.16 1004,0 1001,0 1002,3 3,0 90,4 1,5 2,8 1,2 706,1 -1,3 5,0 19,0 0,0
7.11.16 1010,1 1003,9 1007,1 1,6 90,5 0,2 1,5 1,0 706,7 0,7 2,6 21,9 0,6
8.11.16 1010,7 1008,3 1009,4 0,8 89,0 -0,8 0,4 2,8 706,7 0,1 2,3 20,8 0,0
9.11.16 1010,8 1003,9 1007,5 0,6 82,6 -2,0 -0,2 4,0 707,0 -2,1 4,2 22,1 0,3
10.11.16 1010,0 1001,9 1006,2 1,1 92,5 -0,0 0,3 3,1 712,1 0,1 1,9 28,0 5,1
11.11.16 1022,7 1008,7 1014,5 1,2 94,3 0,3 1,0 1,7 714,2 -0,6 2,9 22,6 2,1
12.11.16 1025,1 1022,3 1024,1 -1,4 87,8 -3,1 -1,4 0,1 714,2 -2,5 -0,4 20,9 0,0
13.11.16 1031,2 1024,9 1027,5 -1,3 77,1 -4,9 -2,2 3,9 714,2 -3,6 2,6 25,2 0,0
14.11.16 1034,0 1031,1 1032,3 -2,2 78,1 -5,6 -2,4 1,8 714,2 -7,6 4,3 21,9 0,0
15.11.16 1031,3 1024,1 1027,4 -0,4 86,9 -2,3 -0,9 2,8 719,2 -2,7 1,5 26,6 5,0
16.11.16 1024,2 1015,4 1019,4 5,2 94,9 4,4 5,0 2,0 728,8 1,5 7,6 17,2 9,6
17.11.16 1015,6 1008,0 1011,6 7,9 92,2 6,7 6,9 5,0 732,8 7,0 8,9 30,9 4,0
18.11.16 1011,8 1002,9 1006,5 7,9 86,2 5,7 5,5 8,8 736,0 4,9 12,2 36,0 3,2
19.11.16 1013,2 1008,9 1010,9 4,5 90,1 3,0 3,5 4,5 737,1 1,9 6,1 27,3 1,1
20.11.16 1012,6 1007,3 1009,6 4,8 82,9 2,0 3,1 6,2 737,1 1,9 9,9 34,9 0,0
21.11.16 1011,3 1007,9 1009,7 5,7 84,4 3,2 4,7 4,8 737,1 2,4 8,9 27,0 0,0
22.11.16 1018,2 1009,9 1014,3 7,1 92,0 5,8 6,4 4,3 737,1 5,5 9,4 26,2 0,0
23.11.16 1021,1 1017,9 1019,9 6,1 93,6 5,0 5,2 4,8 737,1 4,8 8,7 26,6 0,0
24.11.16 1022,3 1019,9 1021,2 5,5 95,4 4,7 5,4 1,4 737,1 4,7 6,1 23,4 0,0
25.11.16 1021,8 1020,6 1021,2 4,0 94,0 3,0 3,7 2,0 737,1 2,3 5,2 20,8 0,0
26.11.16 1021,5 1016,8 1018,9 2,4 91,7 1,2 2,4 0,1 737,1 0,8 3,9 7,2 0,0
27.11.16 1021,0 1015,4 1017,5 2,2 92,6 1,1 2,2 1,2 737,1 -0,1 5,4 15,8 0,0
28.11.16 1031,6 1021,1 1026,4 -1,4 83,4 -3,8 -1,8 2,1 737,1 -4,4 1,5 23,4 0,0
29.11.16 1033,6 1031,5 1032,6 -3,3 81,7 -6,1 -3,3 0,2 737,1 -7,7 4,6 13,6 0,0
30.11.16 1032,4 1026,6 1029,6 -3,3 78,5 -6,5 -4,2 3,3 737,1 -8,4 2,1 29,5 0,0
1.12.16 1026,6 1017,4 1022,6 0,4 86,3 -1,6 -3,4 10,2 737,1 -1,1 1,4 35,2 0,0
2.12.16 1023,9 1015,4 1019,5 1,1 88,9 -0,6 -0,4 4,9 738,2 -4,9 6,1 37,8 1,1
3.12.16 1027,7 1023,1 1025,2 -3,3 85,7 -5,4 -3,3 0,1 738,2 -8,0 5,9 10,8 0,0
4.12.16 1029,9 1026,8 1028,6 -4,6 80,7 -7,6 -4,7 0,7 738,2 -10,1 3,9 16,5 0,0
5.12.16 1029,2 1026,0 1027,4 -2,8 80,5 -5,7 -3,1 2,9 738,2 -5,4 3,3 19,8 0,0
6.12.16 1033,6 1027,5 1030,4 -4,1 91,2 -5,3 -4,3 1,6 738,2 -6,8 -0,1 29,3 0,0
7.12.16 1034,7 1032,8 1033,7 -4,4 90,5 -5,7 -4,6 1,5 738,2 -8,7 -1,4 15,1 0,0
8.12.16 1033,7 1029,1 1031,5 0,8 82,3 -1,9 0,8 1,4 738,2 -2,8 6,4 25,8 0,0
9.12.16 1030,3 1028,2 1029,4 3,0 86,8 1,0 2,2 3,9 738,2 0,9 4,6 28,8 0,0
10.12.16 1028,7 1021,6 1025,4 5,0 83,6 2,2 4,9 1,2 738,2 -0,9 12,1 28,0 0,0
11.12.16 1021,4 1015,0 1018,4 4,1 89,9 2,5 2,2 6,7 739,3 -0,1 6,1 45,0 1,1
12.12.16 1027,3 1019,2 1023,2 3,5 93,5 2,6 2,3 5,0 746,7 1,3 4,9 25,5 7,4
13.12.16 1027,2 1024,2 1025,8 2,5 92,8 1,4 2,5 1,0 747,9 1,3 4,5 12,2 1,2
14.12.16 1028,1 1022,9 1024,9 3,6 94,4 2,7 3,3 1,8 747,9 2,5 5,3 19,0 0,0
15.12.16 1029,5 1027,4 1028,4 1,3 93,2 0,3 0,1 4,4 747,9 -2,1 3,9 26,2 0,0
16.12.16 1033,5 1028,8 1030,8 -1,8 87,9 -3,5 -3,3 6,0 747,9 -3,5 -0,1 26,6 0,0
17.12.16 1037,9 1033,3 1036,0 -2,6 93,5 -3,5 -2,8 1,3 747,9 -5,3 -0,9 20,8 0,0
18.12.16 1036,4 1030,3 1032,8 -0,6 93,9 -1,4 -0,7 1,0 747,9 -1,7 -0,1 15,8 0,0
19.12.16 1030,7 1027,8 1029,1 -0,0 92,0 -1,1 -1,9 5,5 749,0 -2,0 0,9 29,5 1,1
20.12.16 1027,9 1023,5 1025,4 -2,1 89,8 -3,5 -5,5 9,6 749,0 -4,0 -0,5 36,0 0,0
21.12.16 1030,8 1025,0 1028,4 -3,6 90,9 -4,9 -3,9 3,2 749,0 -4,7 -1,9 13,6 0,0
22.12.16 1031,7 1029,5 1030,5 -2,8 91,6 -3,9 -3,2 3,7 749,0 -4,2 -0,1 16,9 0,0
23.12.16 1035,7 1029,1 1033,0 -0,3 94,6 -1,0 -0,5 1,9 749,5 -1,6 0,4 15,8 0,5
24.12.16 1028,9 1024,5 1026,0 2,9 92,4 1,7 1,7 5,3 751,0 0,1 4,1 34,2 1,5
25.12.16 1025,6 1023,2 1024,1 4,7 93,6 3,7 2,4 7,8 752,6 3,5 5,6 42,8 1,6
26.12.16 1030,2 1023,8 1026,1 4,8 93,5 3,8 3,2 6,5 754,7 1,2 6,6 29,8 2,1
27.12.16 1038,1 1030,1 1033,7 2,1 89,3 0,5 -0,5 8,5 757,7 0,7 3,6 38,1 3,0
28.12.16 1040,6 1037,1 1038,9 3,4 91,0 2,0 2,3 4,9 758,7 2,5 3,9 31,6 1,0
29.12.16 1040,7 1038,0 1039,5 1,6 91,5 0,3 1,6 0,5 759,3 -3,1 3,8 11,5 0,6
30.12.16 1038,5 1035,1 1036,9 -1,7 80,4 -5,1 -1,7 0,3 759,5 -6,1 7,8 19,1 0,2
31.12.16 1035,1 1028,2 1031,8 -3,3 77,9 -6,9 -3,3 0,3 759,5 -8,2 7,4 10,8 0,0